createdAt,value
2019-04-04T00:00:14.313Z,56.88
2019-04-04T00:02:42.564Z,57.15
2019-04-04T00:05:09.361Z,55.80
2019-04-04T00:07:36.476Z,58.83
2019-04-04T00:10:05.163Z,59.38
2019-04-04T00:12:32.452Z,55.67
2019-04-04T00:14:59.173Z,47.08
2019-04-04T00:17:25.998Z,59.98
2019-04-04T00:19:52.715Z,48.98
2019-04-04T00:22:19.504Z,53.73
2019-04-04T00:24:46.259Z,52.25
2019-04-04T00:27:13.681Z,48.23
2019-04-04T00:29:40.800Z,52.98
2019-04-04T00:32:07.546Z,54.60
2019-04-04T00:34:34.346Z,55.67
2019-04-04T00:37:04.368Z,52.25
2019-04-04T00:39:29.988Z,58.30
2019-04-04T00:41:56.802Z,54.55
2019-04-04T00:44:23.747Z,58.13
2019-04-04T00:46:50.533Z,60.90
2019-04-04T00:49:17.256Z,55.78
2019-04-04T00:51:43.990Z,58.85
2019-04-04T00:54:12.070Z,62.20
2019-04-04T00:56:39.477Z,62.13
2019-04-04T00:59:06.367Z,55.67
2019-04-04T01:01:33.100Z,56.60
2019-04-04T01:04:01.020Z,55.00
2019-04-04T01:06:29.451Z,51.65
2019-04-04T01:08:56.239Z,50.45
2019-04-04T01:11:23.153Z,52.03
2019-04-04T01:13:50.204Z,53.20
2019-04-04T01:16:16.978Z,51.88
2019-04-04T01:18:43.710Z,52.73
2019-04-04T01:21:10.493Z,53.63
2019-04-04T01:23:37.551Z,56.98
2019-04-04T01:26:04.493Z,53.50
2019-04-04T01:28:31.222Z,53.60
2019-04-04T01:30:58.166Z,54.23
2019-04-04T01:33:24.961Z,56.20
2019-04-04T01:35:53.723Z,49.50
2019-04-04T01:38:20.411Z,51.77
2019-04-04T01:40:47.458Z,54.38
2019-04-04T01:43:14.169Z,49.00
2019-04-04T01:45:43.743Z,47.73
2019-04-04T01:48:09.564Z,51.05
2019-04-04T01:50:36.537Z,51.35
2019-04-04T01:53:03.315Z,50.45
2019-04-04T01:55:30.260Z,50.75
2019-04-04T01:57:57.110Z,53.80
2019-04-04T02:00:24.077Z,50.92
2019-04-04T02:02:51.898Z,50.52
2019-04-04T02:05:19.170Z,52.95
2019-04-04T02:07:46.009Z,51.33
2019-04-04T02:10:12.906Z,49.15
2019-04-04T02:12:39.661Z,50.30
2019-04-04T02:15:07.696Z,49.48
2019-04-04T02:17:34.436Z,49.03
2019-04-04T02:20:01.392Z,48.70
2019-04-04T02:22:30.625Z,51.83
2019-04-04T02:24:56.925Z,48.38
2019-04-04T02:27:23.767Z,48.02
2019-04-04T02:29:50.660Z,49.50
2019-04-04T02:32:19.317Z,48.63
2019-04-04T02:34:46.248Z,79.15
2019-04-04T02:37:13.054Z,55.80
2019-04-04T02:39:39.790Z,50.35
2019-04-04T02:42:06.617Z,45.10
2019-04-04T02:44:33.396Z,49.73
2019-04-04T02:47:00.175Z,52.48
2019-04-04T02:49:29.245Z,46.95
2019-04-04T02:51:55.858Z,50.28
2019-04-04T02:54:24.629Z,50.25
2019-04-04T02:56:51.216Z,41.20
2019-04-04T02:59:21.770Z,50.48
2019-04-04T03:01:48.842Z,49.53
2019-04-04T03:04:15.631Z,45.50
2019-04-04T03:06:42.378Z,49.93
2019-04-04T03:09:10.393Z,49.70
2019-04-04T03:11:37.480Z,47.65
2019-04-04T03:14:04.766Z,48.35
2019-04-04T03:16:31.688Z,48.00
2019-04-04T03:18:58.463Z,49.23
2019-04-04T03:21:25.721Z,47.38
2019-04-04T03:23:52.496Z,47.53
2019-04-04T03:26:20.597Z,49.03
2019-04-04T03:28:47.523Z,46.70
2019-04-04T03:31:14.573Z,48.73
2019-04-04T03:33:41.373Z,51.25
2019-04-04T03:36:08.190Z,48.38
2019-04-04T03:38:35.171Z,48.68
2019-04-04T03:41:02.069Z,46.05
2019-04-04T03:43:28.835Z,44.95
2019-04-04T03:46:00.154Z,42.15
2019-04-04T03:48:24.304Z,48.95
2019-04-04T03:50:51.394Z,45.33
2019-04-04T03:53:20.094Z,48.78
2019-04-04T03:55:46.808Z,52.17
2019-04-04T03:58:13.582Z,48.38
2019-04-04T04:00:40.715Z,50.48
2019-04-04T04:03:07.593Z,50.20
2019-04-04T04:05:36.639Z,49.03
2019-04-04T04:08:03.321Z,54.77
2019-04-04T04:10:33.434Z,48.83
2019-04-04T04:12:59.182Z,49.45
2019-04-04T04:15:29.042Z,49.38
2019-04-04T04:17:55.222Z,51.77
2019-04-04T04:20:22.772Z,54.20
2019-04-04T04:22:50.923Z,51.15
2019-04-04T04:25:18.221Z,48.63
2019-04-04T04:27:48.499Z,48.52
2019-04-04T04:30:13.839Z,51.88
2019-04-04T04:32:40.629Z,59.27
2019-04-04T04:35:09.138Z,54.30
2019-04-04T04:37:36.163Z,53.35
2019-04-04T04:40:04.151Z,51.55
2019-04-04T04:42:30.882Z,54.48
2019-04-04T04:44:57.863Z,53.35
2019-04-04T04:47:24.603Z,53.50
2019-04-04T04:49:51.346Z,47.75
2019-04-04T04:52:18.443Z,48.70
2019-04-04T04:54:45.295Z,51.33
2019-04-04T04:57:28.153Z,49.80
2019-04-04T04:59:40.757Z,52.35
2019-04-04T05:02:07.650Z,52.62
2019-04-04T05:04:34.425Z,55.85
2019-04-04T05:07:01.212Z,50.15
2019-04-04T05:09:27.923Z,59.42
2019-04-04T05:11:54.827Z,49.27
2019-04-04T05:14:21.677Z,51.63
2019-04-04T05:16:48.451Z,53.63
2019-04-04T05:19:15.289Z,46.08
2019-04-04T05:21:42.279Z,48.60
2019-04-04T05:24:09.060Z,45.28
2019-04-04T05:26:38.516Z,52.27
2019-04-04T05:29:04.608Z,46.48
2019-04-04T05:31:31.363Z,44.98
2019-04-04T05:33:59.173Z,50.43
2019-04-04T05:36:26.478Z,53.68
2019-04-04T05:38:53.249Z,54.18
2019-04-04T05:41:20.413Z,44.40
2019-04-04T05:43:47.167Z,51.53
2019-04-04T05:46:13.918Z,48.30
2019-04-04T05:48:40.775Z,49.73
2019-04-04T05:51:07.753Z,45.80
2019-04-04T05:53:35.429Z,51.18
2019-04-04T05:56:06.151Z,52.73
2019-04-04T05:58:31.845Z,49.67
2019-04-04T06:01:01.504Z,49.80
2019-04-04T06:03:27.781Z,50.48
2019-04-04T06:05:54.720Z,47.58
2019-04-04T06:08:21.513Z,46.98
2019-04-04T06:10:50.089Z,44.60
2019-04-04T06:13:17.006Z,50.17
2019-04-04T06:15:43.969Z,48.60
2019-04-04T06:18:11.812Z,46.95
2019-04-04T06:20:38.945Z,48.50
2019-04-04T06:23:05.774Z,46.00
2019-04-04T06:25:35.658Z,42.38
2019-04-04T06:28:01.316Z,48.90
2019-04-04T06:30:28.251Z,39.98
2019-04-04T06:32:54.971Z,46.95
2019-04-04T06:35:21.754Z,42.15
2019-04-04T06:37:51.338Z,42.80
2019-04-04T06:40:18.252Z,45.63
2019-04-04T06:42:45.195Z,44.03
2019-04-04T06:45:15.493Z,41.58
2019-04-04T06:47:42.953Z,46.75
2019-04-04T06:50:09.673Z,47.10
2019-04-04T06:52:36.814Z,49.75
2019-04-04T06:55:05.443Z,46.20
2019-04-04T06:57:32.205Z,44.60
2019-04-04T06:59:59.021Z,45.40
2019-04-04T07:02:25.809Z,44.63
2019-04-04T07:04:53.435Z,40.52
2019-04-04T07:07:20.322Z,40.48
2019-04-04T07:09:48.238Z,37.75
2019-04-04T07:12:24.424Z,45.70
2019-04-04T07:14:45.885Z,43.38
2019-04-04T07:17:16.176Z,37.88
2019-04-04T07:19:43.996Z,38.45
2019-04-04T07:22:10.907Z,42.67
2019-04-04T07:24:38.459Z,45.40
2019-04-04T07:27:05.270Z,44.88
2019-04-04T07:29:32.116Z,36.45
2019-04-04T07:31:59.749Z,41.98
2019-04-04T07:34:26.560Z,41.63
2019-04-04T07:36:53.470Z,36.45
2019-04-04T07:39:20.298Z,38.13
2019-04-04T07:41:47.286Z,40.78
2019-04-04T07:44:14.113Z,39.88
2019-04-04T07:46:41.931Z,39.70
2019-04-04T07:49:09.580Z,45.43
2019-04-04T07:51:36.345Z,41.63
2019-04-04T07:54:03.121Z,36.05
2019-04-04T07:56:29.972Z,41.48
2019-04-04T07:58:56.825Z,35.15
2019-04-04T08:01:23.658Z,40.28
2019-04-04T08:03:50.417Z,34.95
2019-04-04T08:06:17.238Z,37.25
2019-04-04T08:08:44.114Z,39.65
2019-04-04T08:11:13.229Z,38.65
2019-04-04T08:13:39.675Z,37.38
2019-04-04T08:16:06.902Z,39.45
2019-04-04T08:18:35.184Z,41.37
2019-04-04T08:21:02.023Z,44.33
2019-04-04T08:23:28.819Z,35.58
2019-04-04T08:25:55.629Z,31.85
2019-04-04T08:28:22.531Z,33.78
2019-04-04T08:30:49.435Z,31.93
2019-04-04T08:33:16.227Z,32.50
2019-04-04T08:35:43.335Z,30.20
2019-04-04T08:38:10.442Z,31.27
2019-04-04T08:40:37.386Z,30.25
2019-04-04T08:43:04.175Z,29.30
2019-04-04T08:45:30.979Z,33.53
2019-04-04T08:47:57.745Z,29.63
2019-04-04T08:50:24.492Z,30.05
2019-04-04T08:52:51.451Z,28.70
2019-04-04T08:55:18.313Z,25.23
2019-04-04T08:57:45.208Z,29.85
2019-04-04T09:00:12.189Z,26.48
2019-04-04T09:02:39.000Z,27.67
2019-04-04T09:05:11.782Z,27.65
2019-04-04T09:07:34.760Z,33.02
2019-04-04T09:10:02.202Z,32.93
2019-04-04T09:12:28.966Z,31.35
2019-04-04T09:14:56.143Z,29.87
2019-04-04T09:17:23.110Z,26.33
2019-04-04T09:19:49.923Z,28.50
2019-04-04T09:22:16.935Z,29.70
2019-04-04T09:24:43.681Z,29.75
2019-04-04T09:27:10.450Z,27.98
2019-04-04T09:29:37.338Z,39.58
2019-04-04T09:32:04.171Z,62.60
2019-04-04T09:34:30.932Z,33.20
2019-04-04T09:36:57.710Z,29.87
2019-04-04T09:39:24.727Z,31.30
2019-04-04T09:41:51.467Z,33.10
2019-04-04T09:44:18.250Z,27.73
2019-04-04T09:46:45.914Z,29.57
2019-04-04T09:49:13.085Z,28.20
2019-04-04T09:51:40.128Z,27.98
2019-04-04T09:54:06.947Z,28.87
2019-04-04T09:56:33.741Z,28.65
2019-04-04T09:59:00.606Z,30.88
2019-04-04T10:01:27.690Z,32.20
2019-04-04T10:03:54.436Z,27.25
2019-04-04T10:06:21.201Z,37.35
2019-04-04T10:08:47.967Z,30.48
2019-04-04T10:11:14.780Z,22.93
2019-04-04T10:13:41.655Z,33.28
2019-04-04T10:16:08.411Z,25.27
2019-04-04T10:18:35.564Z,103.95
2019-04-04T10:21:11.853Z,27.98
2019-04-04T10:23:31.773Z,24.45
2019-04-04T10:25:58.824Z,24.65
2019-04-04T10:28:25.602Z,21.70
2019-04-04T10:30:52.412Z,22.55
2019-04-04T10:33:19.162Z,20.95
2019-04-04T10:35:46.068Z,22.82
2019-04-04T10:38:12.891Z,51.05
2019-04-04T10:40:39.718Z,25.65
2019-04-04T10:43:06.678Z,26.45
2019-04-04T10:45:33.560Z,14.65
2019-04-04T10:48:00.315Z,10.40
2019-04-04T10:50:27.509Z,12.40
2019-04-04T10:52:54.460Z,15.50
2019-04-04T10:55:21.382Z,9.95
2019-04-04T10:57:48.171Z,12.05
2019-04-04T11:00:15.246Z,14.18
2019-04-04T11:02:42.363Z,13.93
2019-04-04T11:05:09.978Z,10.68
2019-04-04T11:07:36.726Z,13.18
2019-04-04T11:10:04.599Z,15.90
2019-04-04T11:12:34.124Z,12.00
2019-04-04T11:15:00.358Z,13.72
2019-04-04T11:17:27.296Z,11.68
2019-04-04T11:19:54.731Z,13.10
2019-04-04T11:22:21.600Z,13.20
2019-04-04T11:24:48.366Z,12.30
2019-04-04T11:27:17.484Z,14.70
2019-04-04T11:29:43.976Z,15.80
2019-04-04T11:32:10.866Z,12.00
2019-04-04T11:34:37.636Z,14.15
2019-04-04T11:37:04.470Z,12.33
2019-04-04T11:39:31.449Z,15.95
2019-04-04T11:41:58.282Z,13.62
2019-04-04T11:44:25.094Z,11.73
2019-04-04T11:46:51.893Z,14.38
2019-04-04T11:49:18.872Z,14.35
2019-04-04T11:51:45.601Z,15.10
2019-04-04T11:54:12.355Z,13.28
2019-04-04T11:56:39.242Z,11.55
2019-04-04T11:59:08.171Z,11.90
2019-04-04T12:01:39.342Z,12.43
2019-04-04T12:04:06.070Z,15.05
2019-04-04T12:06:33.022Z,13.08
2019-04-04T12:08:59.856Z,12.37
2019-04-04T12:11:26.740Z,16.70
2019-04-04T12:13:53.499Z,12.98
2019-04-04T12:16:20.348Z,13.83
2019-04-04T12:18:47.169Z,16.02
2019-04-04T12:21:14.007Z,9.90
2019-04-04T12:23:40.795Z,12.58
2019-04-04T12:26:09.183Z,12.73
2019-04-04T12:28:37.253Z,12.53
2019-04-04T12:31:04.197Z,11.45
2019-04-04T12:33:30.971Z,13.43
2019-04-04T12:35:57.759Z,13.90
2019-04-04T12:38:24.772Z,14.20
2019-04-04T12:40:51.537Z,13.03
2019-04-04T12:43:18.254Z,11.55
2019-04-04T12:45:45.047Z,16.37
2019-04-04T12:48:11.883Z,14.80
2019-04-04T12:50:38.652Z,13.03
2019-04-04T12:53:05.416Z,12.15
2019-04-04T12:55:32.379Z,13.55
2019-04-04T12:57:59.280Z,11.45
2019-04-04T13:00:26.131Z,13.50
2019-04-04T13:02:52.863Z,15.43
2019-04-04T13:05:20.127Z,16.48
2019-04-04T13:07:47.060Z,12.63
2019-04-04T13:10:15.014Z,13.55
2019-04-04T13:12:41.823Z,11.88
2019-04-04T13:15:08.845Z,11.75
2019-04-04T13:17:35.714Z,13.38
2019-04-04T13:20:04.425Z,14.30
2019-04-04T13:22:31.389Z,11.87
2019-04-04T13:24:58.231Z,17.30
2019-04-04T13:27:25.021Z,12.00
2019-04-04T13:29:51.852Z,16.05
2019-04-04T13:32:18.777Z,14.75
2019-04-04T13:34:58.358Z,13.90
2019-04-04T13:37:14.303Z,12.57
2019-04-04T13:39:41.124Z,13.48
2019-04-04T13:42:08.087Z,11.78
2019-04-04T13:47:47.903Z,14.55
2019-04-04T13:50:14.843Z,15.20
2019-04-04T13:52:41.935Z,17.77
2019-04-04T13:55:15.398Z,9.90
2019-04-04T13:57:42.443Z,12.07
2019-04-04T14:00:09.692Z,13.00
2019-04-04T14:02:38.336Z,13.15
2019-04-04T14:05:10.011Z,13.70
2019-04-04T14:07:35.917Z,13.22
2019-04-04T14:10:05.566Z,16.65
2019-04-04T14:14:59.045Z,13.95
2019-04-04T14:17:26.163Z,13.85
2019-04-04T14:19:52.945Z,14.83
2019-04-04T14:22:19.774Z,14.10
2019-04-04T14:24:46.989Z,13.25
2019-04-04T14:27:13.738Z,15.10
2019-04-04T14:29:40.618Z,15.53
2019-04-04T14:32:07.447Z,14.58
2019-04-04T14:34:34.399Z,12.75
2019-04-04T14:37:01.127Z,16.20
2019-04-04T14:39:27.972Z,14.58
2019-04-04T14:41:54.811Z,17.02
2019-04-04T14:44:21.718Z,14.87
2019-04-04T14:49:18.457Z,17.75
2019-04-04T14:51:45.218Z,17.02
2019-04-04T14:54:12.008Z,13.90
2019-04-04T14:56:38.932Z,16.05
2019-04-04T14:59:05.713Z,13.62
2019-04-04T15:01:34.930Z,14.90
2019-04-04T15:04:01.109Z,14.75
2019-04-04T15:06:27.913Z,14.60
2019-04-04T15:08:54.635Z,18.15
2019-04-04T15:11:24.474Z,17.52
2019-04-04T15:13:50.186Z,16.05
2019-04-04T15:16:17.068Z,16.07
2019-04-04T15:18:43.897Z,12.40
2019-04-04T15:21:10.762Z,14.75
2019-04-04T15:23:37.557Z,13.50
2019-04-04T15:26:04.358Z,18.90
2019-04-04T15:28:31.194Z,14.18
2019-04-04T15:30:58.025Z,16.85
2019-04-04T15:33:24.801Z,18.00
2019-04-04T15:35:51.729Z,15.30
2019-04-04T15:38:18.652Z,18.20
2019-04-04T15:40:45.437Z,14.15
2019-04-04T15:43:12.233Z,18.10
2019-04-04T15:45:39.317Z,16.02
2019-04-04T15:48:06.284Z,18.57
2019-04-04T15:50:33.107Z,16.67
2019-04-04T15:53:00.209Z,18.98
2019-04-04T15:55:26.999Z,13.55
2019-04-04T15:57:53.781Z,22.52
2019-04-04T16:00:20.560Z,15.23
2019-04-04T16:02:47.553Z,18.77
2019-04-04T16:05:14.324Z,25.35
2019-04-04T16:07:41.065Z,18.27
2019-04-04T16:10:08.155Z,19.40
2019-04-04T16:12:34.963Z,19.82
2019-04-04T16:15:01.860Z,16.73
2019-04-04T16:17:28.599Z,17.07
2019-04-04T16:19:55.452Z,17.15
2019-04-04T16:22:22.211Z,20.40
2019-04-04T16:24:48.962Z,17.42
2019-04-04T16:27:16.299Z,17.95
2019-04-04T16:29:44.276Z,18.77
2019-04-04T16:32:13.039Z,16.97
2019-04-04T16:34:39.785Z,17.12
2019-04-04T16:37:06.661Z,21.42
2019-04-04T16:39:35.496Z,18.15
2019-04-04T16:42:02.796Z,15.07
2019-04-04T16:44:29.797Z,16.62
2019-04-04T16:46:56.593Z,19.15
2019-04-04T16:49:23.399Z,16.00
2019-04-04T16:51:50.201Z,23.80
2019-04-04T16:54:17.054Z,20.35
2019-04-04T16:56:43.927Z,16.95
2019-04-04T16:59:10.620Z,20.48
2019-04-04T17:01:37.420Z,18.92
2019-04-04T17:04:04.205Z,19.95
2019-04-04T17:06:31.180Z,15.65
2019-04-04T17:08:57.968Z,22.07
2019-04-04T17:11:24.713Z,23.00
2019-04-04T17:13:51.582Z,18.40
2019-04-04T17:16:21.178Z,25.90
2019-04-04T17:18:47.140Z,18.55
2019-04-04T17:21:13.906Z,21.02
2019-04-04T17:23:41.079Z,19.65
2019-04-04T17:26:07.886Z,21.60
2019-04-04T17:28:34.637Z,18.98
2019-04-04T17:31:01.493Z,20.52
2019-04-04T17:33:28.741Z,25.40
2019-04-04T17:35:55.839Z,22.52
2019-04-04T17:38:22.633Z,20.85
2019-04-04T17:40:49.427Z,19.32
2019-04-04T17:43:16.208Z,19.62
2019-04-04T17:45:43.026Z,20.55
2019-04-04T17:48:09.832Z,22.15
2019-04-04T17:50:36.822Z,22.42
2019-04-04T17:53:03.610Z,19.50
2019-04-04T17:55:30.389Z,25.62
2019-04-04T17:57:57.966Z,20.77
2019-04-04T18:00:25.700Z,21.07
2019-04-04T18:02:52.568Z,22.98
2019-04-04T18:05:19.502Z,23.07
2019-04-04T18:07:46.477Z,21.87
2019-04-04T18:10:13.443Z,20.35
2019-04-04T18:12:41.000Z,24.67
2019-04-04T18:15:09.065Z,25.97
2019-04-04T18:17:35.934Z,28.00
2019-04-04T18:20:06.448Z,21.85
2019-04-04T18:22:36.032Z,26.85
2019-04-04T18:25:05.024Z,27.05
2019-04-04T18:27:31.944Z,22.95
2019-04-04T18:29:59.104Z,27.32
2019-04-04T18:32:25.928Z,25.40
2019-04-04T18:34:52.744Z,24.07
2019-04-04T18:37:19.702Z,29.07
2019-04-04T18:39:46.527Z,21.10
2019-04-04T18:42:13.401Z,22.15
2019-04-04T18:44:40.595Z,22.90
2019-04-04T18:47:07.329Z,26.02
2019-04-04T18:49:34.253Z,26.40
2019-04-04T18:52:01.008Z,22.65
2019-04-04T18:54:27.990Z,23.92
2019-04-04T18:56:54.756Z,22.52
2019-04-04T18:59:21.590Z,27.50
2019-04-04T19:01:48.722Z,22.58
2019-04-04T19:04:15.502Z,25.02
2019-04-04T19:06:42.326Z,24.70
2019-04-04T19:09:15.228Z,28.02
2019-04-04T19:11:40.038Z,26.90
2019-04-04T19:14:06.791Z,26.12
2019-04-04T19:16:33.561Z,26.85
2019-04-04T19:19:00.341Z,27.73
2019-04-04T19:21:27.170Z,32.98
2019-04-04T19:23:54.096Z,28.27
2019-04-04T19:26:21.033Z,27.50
2019-04-04T19:28:47.752Z,31.25
2019-04-04T19:31:14.733Z,29.50
2019-04-04T19:33:41.653Z,29.30
2019-04-04T19:36:10.041Z,29.32
2019-04-04T19:38:36.842Z,32.80
2019-04-04T19:41:04.056Z,32.98
2019-04-04T19:43:30.767Z,33.25
2019-04-04T19:45:57.577Z,35.68
2019-04-04T19:48:24.664Z,30.50
2019-04-04T19:50:51.994Z,34.20
2019-04-04T19:53:18.757Z,33.90
2019-04-04T19:55:45.550Z,33.88
2019-04-04T19:58:12.450Z,33.70
2019-04-04T20:00:39.250Z,33.40
2019-04-04T20:03:06.002Z,36.60
2019-04-04T20:05:32.862Z,35.95
2019-04-04T20:07:59.720Z,42.50
2019-04-04T20:10:26.480Z,34.83
2019-04-04T20:12:53.647Z,36.00
2019-04-04T20:15:20.690Z,42.03
2019-04-04T20:17:47.469Z,35.73
2019-04-04T20:20:14.369Z,37.83
2019-04-04T20:22:43.602Z,32.30
2019-04-04T20:25:10.375Z,39.20
2019-04-04T20:27:37.464Z,35.50
2019-04-04T20:30:06.297Z,34.38
2019-04-04T20:32:33.026Z,36.85
2019-04-04T20:34:59.929Z,38.30
2019-04-04T20:37:26.726Z,35.95
2019-04-04T20:39:53.625Z,35.05
2019-04-04T20:42:20.402Z,37.95
2019-04-04T20:44:47.228Z,38.33
2019-04-04T20:47:14.017Z,38.83
2019-04-04T20:49:40.747Z,42.50
2019-04-04T20:52:07.514Z,46.15
2019-04-04T20:54:34.454Z,40.70
2019-04-04T20:57:01.222Z,36.33
2019-04-04T20:59:28.343Z,37.00
2019-04-04T21:01:55.696Z,38.88
2019-04-04T21:04:22.481Z,40.15
2019-04-04T21:06:49.377Z,39.60
2019-04-04T21:09:16.190Z,42.98
2019-04-04T21:11:43.148Z,35.40
2019-04-04T21:14:09.937Z,43.55
2019-04-04T21:16:36.769Z,36.83
2019-04-04T21:19:03.604Z,40.15
2019-04-04T21:21:30.343Z,36.88
2019-04-04T21:23:57.241Z,39.80
2019-04-04T21:26:23.991Z,39.18
2019-04-04T21:28:50.799Z,41.02
2019-04-04T21:31:17.610Z,45.52
2019-04-04T21:33:44.380Z,36.63
2019-04-04T21:36:11.160Z,40.20
2019-04-04T21:38:38.024Z,35.28
2019-04-04T21:41:04.751Z,38.00
2019-04-04T21:43:31.928Z,38.98
2019-04-04T21:45:58.677Z,42.05
2019-04-04T21:48:25.445Z,41.98
2019-04-04T21:50:52.258Z,40.30
2019-04-04T21:53:19.099Z,40.88
2019-04-04T21:55:45.841Z,37.42
2019-04-04T21:58:12.700Z,38.90
2019-04-04T22:00:43.409Z,35.80
2019-04-04T22:03:10.248Z,43.48
2019-04-04T22:05:37.288Z,41.63
2019-04-04T22:08:04.142Z,45.98
2019-04-04T22:10:30.924Z,38.55
2019-04-04T22:12:57.689Z,36.50
2019-04-04T22:15:24.649Z,39.60
2019-04-04T22:17:53.033Z,34.20
2019-04-04T22:20:19.748Z,35.63
2019-04-04T22:22:46.557Z,39.75
2019-04-04T22:25:13.827Z,34.95
2019-04-04T22:27:40.578Z,38.38
2019-04-04T22:30:07.344Z,42.05
2019-04-04T22:32:34.644Z,43.95
2019-04-04T22:35:01.464Z,43.52
2019-04-04T22:37:29.573Z,42.43
2019-04-04T22:39:56.469Z,42.20
2019-04-04T22:42:23.524Z,41.55
2019-04-04T22:44:50.312Z,39.40
2019-04-04T22:47:17.054Z,38.17
2019-04-04T22:49:43.778Z,44.55
2019-04-04T22:52:10.652Z,41.80
2019-04-04T22:54:37.435Z,40.05
2019-04-04T22:57:04.181Z,44.30
2019-04-04T22:59:30.956Z,40.10
2019-04-04T23:01:58.675Z,39.90
2019-04-04T23:04:25.496Z,45.63
2019-04-04T23:06:52.679Z,41.92
2019-04-04T23:09:19.595Z,40.88
2019-04-04T23:11:46.365Z,45.17
2019-04-04T23:14:13.181Z,47.30
2019-04-04T23:16:40.028Z,43.13
2019-04-04T23:19:06.790Z,45.55
2019-04-04T23:21:33.563Z,46.75
2019-04-04T23:24:00.515Z,55.03
2019-04-04T23:26:27.294Z,52.95
2019-04-04T23:28:54.060Z,52.20
2019-04-04T23:31:20.787Z,56.28
2019-04-04T23:33:47.649Z,58.13
2019-04-04T23:36:14.440Z,55.70
2019-04-04T23:38:41.181Z,59.15
2019-04-04T23:41:08.520Z,51.25
2019-04-04T23:43:35.384Z,57.80
2019-04-04T23:46:02.179Z,53.95
2019-04-04T23:48:29.059Z,55.88
2019-04-04T23:50:55.825Z,59.83
2019-04-04T23:53:22.611Z,57.88
2019-04-04T23:55:49.408Z,58.48
2019-04-04T23:58:16.122Z,57.35
